sensor_id;sensor_type;location;lat;lon;timestamp;pressure;altitude;pressure_sealevel;temperature;humidity
39613;BME280;25303;48.896;13.342;2023-07-09T00:02:04;93371.22;;;21.54;37.62
39613;BME280;25303;48.896;13.342;2023-07-09T00:04:47;93358.13;;;21.54;37.46
39613;BME280;25303;48.896;13.342;2023-07-09T00:07:32;93369.59;;;21.53;37.15
39613;BME280;25303;48.896;13.342;2023-07-09T00:10:17;93370.84;;;21.50;37.36
39613;BME280;25303;48.896;13.342;2023-07-09T00:13:02;93369.22;;;21.49;37.52
39613;BME280;25303;48.896;13.342;2023-07-09T00:15:45;93365.41;;;21.45;37.47
39613;BME280;25303;48.896;13.342;2023-07-09T00:18:28;93370.88;;;21.44;37.46
39613;BME280;25303;48.896;13.342;2023-07-09T00:21:11;93370.28;;;21.42;37.28
39613;BME280;25303;48.896;13.342;2023-07-09T00:23:54;93378.56;;;21.38;37.23
39613;BME280;25303;48.896;13.342;2023-07-09T00:26:37;93373.34;;;21.32;37.28
39613;BME280;25303;48.896;13.342;2023-07-09T00:29:23;93375.59;;;21.28;37.70
39613;BME280;25303;48.896;13.342;2023-07-09T00:32:11;93376.00;;;21.25;37.88
39613;BME280;25303;48.896;13.342;2023-07-09T00:37:39;93374.44;;;21.17;38.13
39613;BME280;25303;48.896;13.342;2023-07-09T00:40:23;93377.69;;;21.13;37.88
39613;BME280;25303;48.896;13.342;2023-07-09T00:43:07;93376.13;;;21.05;38.36
39613;BME280;25303;48.896;13.342;2023-07-09T00:49:27;93385.25;;;20.82;39.17
39613;BME280;25303;48.896;13.342;2023-07-09T00:52:21;93377.63;;;20.74;38.58
39613;BME280;25303;48.896;13.342;2023-07-09T00:55:07;93382.03;;;20.67;38.66
39613;BME280;25303;48.896;13.342;2023-07-09T00:57:56;93387.69;;;20.63;39.00
39613;BME280;25303;48.896;13.342;2023-07-09T01:00:44;93390.53;;;20.62;39.01
39613;BME280;25303;48.896;13.342;2023-07-09T01:03:32;93400.38;;;20.60;38.74
39613;BME280;25303;48.896;13.342;2023-07-09T01:06:23;93398.16;;;20.57;38.88
39613;BME280;25303;48.896;13.342;2023-07-09T01:09:11;93400.00;;;20.56;39.25
39613;BME280;25303;48.896;13.342;2023-07-09T01:11:55;93396.75;;;20.61;38.57
39613;BME280;25303;48.896;13.342;2023-07-09T01:14:42;93392.13;;;20.63;38.50
39613;BME280;25303;48.896;13.342;2023-07-09T01:17:30;93392.91;;;20.63;38.47
39613;BME280;25303;48.896;13.342;2023-07-09T01:20:16;93393.53;;;20.65;38.56
39613;BME280;25303;48.896;13.342;2023-07-09T01:23:04;93387.09;;;20.68;38.07
39613;BME280;25303;48.896;13.342;2023-07-09T01:25:51;93396.94;;;20.73;38.00
39613;BME280;25303;48.896;13.342;2023-07-09T01:28:36;93390.50;;;20.75;38.28
39613;BME280;25303;48.896;13.342;2023-07-09T01:31:19;93392.91;;;20.77;38.22
39613;BME280;25303;48.896;13.342;2023-07-09T01:34:03;93393.72;;;20.77;38.34
39613;BME280;25303;48.896;13.342;2023-07-09T01:36:47;93396.34;;;20.77;38.18
39613;BME280;25303;48.896;13.342;2023-07-09T01:39:31;93394.91;;;20.75;38.16
39613;BME280;25303;48.896;13.342;2023-07-09T01:42:15;93391.31;;;20.76;38.30
39613;BME280;25303;48.896;13.342;2023-07-09T01:44:59;93394.09;;;20.74;38.30
39613;BME280;25303;48.896;13.342;2023-07-09T01:47:46;93389.88;;;20.73;38.10
39613;BME280;25303;48.896;13.342;2023-07-09T01:50:29;93393.72;;;20.71;38.32
39613;BME280;25303;48.896;13.342;2023-07-09T01:53:12;93390.28;;;20.70;38.40
39613;BME280;25303;48.896;13.342;2023-07-09T01:55:58;93392.09;;;20.70;38.32
39613;BME280;25303;48.896;13.342;2023-07-09T01:58:43;93395.13;;;20.67;38.24
39613;BME280;25303;48.896;13.342;2023-07-09T02:01:26;93393.91;;;20.62;38.64
39613;BME280;25303;48.896;13.342;2023-07-09T02:04:09;93394.75;;;20.56;38.87
39613;BME280;25303;48.896;13.342;2023-07-09T02:06:52;93399.56;;;20.53;39.00
39613;BME280;25303;48.896;13.342;2023-07-09T02:09:35;93401.19;;;20.47;38.86
39613;BME280;25303;48.896;13.342;2023-07-09T02:12:20;93405.25;;;20.43;39.27
39613;BME280;25303;48.896;13.342;2023-07-09T02:15:03;93408.44;;;20.38;39.17
39613;BME280;25303;48.896;13.342;2023-07-09T02:17:47;93407.06;;;20.36;39.33
39613;BME280;25303;48.896;13.342;2023-07-09T02:20:30;93412.50;;;20.34;39.21
39613;BME280;25303;48.896;13.342;2023-07-09T02:23:13;93409.06;;;20.33;39.20
39613;BME280;25303;48.896;13.342;2023-07-09T02:25:56;93409.88;;;20.34;39.37
39613;BME280;25303;48.896;13.342;2023-07-09T02:28:41;93405.06;;;20.31;39.38
39613;BME280;25303;48.896;13.342;2023-07-09T02:31:24;93412.28;;;20.29;39.21
39613;BME280;25303;48.896;13.342;2023-07-09T02:34:07;93411.09;;;20.25;39.98
39613;BME280;25303;48.896;13.342;2023-07-09T02:36:50;93417.72;;;20.21;39.58
39613;BME280;25303;48.896;13.342;2023-07-09T02:39:32;93422.94;;;20.21;39.81
39613;BME280;25303;48.896;13.342;2023-07-09T02:42:18;93418.72;;;20.19;39.49
39613;BME280;25303;48.896;13.342;2023-07-09T02:45:05;93423.94;;;20.19;39.68
39613;BME280;25303;48.896;13.342;2023-07-09T02:47:48;93421.34;;;20.19;39.71
39613;BME280;25303;48.896;13.342;2023-07-09T02:50:31;93431.00;;;20.19;39.82
39613;BME280;25303;48.896;13.342;2023-07-09T02:53:14;93424.16;;;20.18;40.26
39613;BME280;25303;48.896;13.342;2023-07-09T02:56:00;93424.56;;;20.15;40.07
39613;BME280;25303;48.896;13.342;2023-07-09T02:58:43;93429.78;;;20.15;40.33
39613;BME280;25303;48.896;13.342;2023-07-09T03:01:28;93425.56;;;20.14;40.23
39613;BME280;25303;48.896;13.342;2023-07-09T03:04:11;93426.56;;;20.13;40.34
39613;BME280;25303;48.896;13.342;2023-07-09T03:06:54;93422.34;;;20.12;40.11
39613;BME280;25303;48.896;13.342;2023-07-09T03:09:37;93427.00;;;20.10;40.44
39613;BME280;25303;48.896;13.342;2023-07-09T03:12:20;93422.16;;;20.07;40.25
39613;BME280;25303;48.896;13.342;2023-07-09T03:15:03;93425.78;;;20.06;40.19
39613;BME280;25303;48.896;13.342;2023-07-09T03:17:48;93430.19;;;20.05;40.34
39613;BME280;25303;48.896;13.342;2023-07-09T03:20:31;93429.56;;;20.03;40.36
39613;BME280;25303;48.896;13.342;2023-07-09T03:23:14;93432.00;;;20.04;40.47
39613;BME280;25303;48.896;13.342;2023-07-09T03:25:57;93434.81;;;20.03;40.43
39613;BME280;25303;48.896;13.342;2023-07-09T03:28:42;93439.25;;;20.02;40.80
39613;BME280;25303;48.896;13.342;2023-07-09T03:31:25;93442.84;;;20.01;40.71
39613;BME280;25303;48.896;13.342;2023-07-09T03:34:09;93445.25;;;20.03;41.03
39613;BME280;25303;48.896;13.342;2023-07-09T03:36:52;93439.84;;;20.04;41.08
39613;BME280;25303;48.896;13.342;2023-07-09T03:39:35;93439.63;;;20.06;40.76
39613;BME280;25303;48.896;13.342;2023-07-09T03:42:18;93433.22;;;20.09;41.29
39613;BME280;25303;48.896;13.342;2023-07-09T03:45:01;93431.78;;;20.13;40.99
39613;BME280;25303;48.896;13.342;2023-07-09T03:47:44;93436.44;;;20.17;41.23
39613;BME280;25303;48.896;13.342;2023-07-09T03:50:29;93434.22;;;20.21;41.46
39613;BME280;25303;48.896;13.342;2023-07-09T03:53:12;93444.88;;;20.26;41.23
39613;BME280;25303;48.896;13.342;2023-07-09T03:55:55;93443.84;;;20.27;41.17
39613;BME280;25303;48.896;13.342;2023-07-09T03:58:39;93439.84;;;20.31;41.07
39613;BME280;25303;48.896;13.342;2023-07-09T04:01:22;93444.88;;;20.33;41.10
39613;BME280;25303;48.896;13.342;2023-07-09T04:04:06;93437.81;;;20.33;41.70
39613;BME280;25303;48.896;13.342;2023-07-09T04:06:50;93428.97;;;20.34;41.59
39613;BME280;25303;48.896;13.342;2023-07-09T04:09:33;93435.59;;;20.37;41.52
39613;BME280;25303;48.896;13.342;2023-07-09T04:12:16;93428.38;;;20.39;41.86
39613;BME280;25303;48.896;13.342;2023-07-09T04:14:59;93433.19;;;20.42;41.43
39613;BME280;25303;48.896;13.342;2023-07-09T04:17:42;93430.59;;;20.42;41.87
39613;BME280;25303;48.896;13.342;2023-07-09T04:20:25;93437.22;;;20.45;41.97
39613;BME280;25303;48.896;13.342;2023-07-09T04:23:10;93437.81;;;20.47;41.88
39613;BME280;25303;48.896;13.342;2023-07-09T04:25:54;93441.63;;;20.51;42.05
39613;BME280;25303;48.896;13.342;2023-07-09T04:28:37;93441.41;;;20.53;42.34
39613;BME280;25303;48.896;13.342;2023-07-09T04:31:20;93436.00;;;20.54;41.94
39613;BME280;25303;48.896;13.342;2023-07-09T04:34:03;93444.25;;;20.58;42.40
39613;BME280;25303;48.896;13.342;2023-07-09T04:36:46;93445.63;;;20.60;42.48
39613;BME280;25303;48.896;13.342;2023-07-09T04:39:30;93442.63;;;20.63;42.07
39613;BME280;25303;48.896;13.342;2023-07-09T04:42:16;93444.84;;;20.67;42.36
39613;BME280;25303;48.896;13.342;2023-07-09T04:44:59;93442.22;;;20.67;42.51
39613;BME280;25303;48.896;13.342;2023-07-09T04:47:42;93447.84;;;20.70;43.10
39613;BME280;25303;48.896;13.342;2023-07-09T04:50:25;93452.66;;;20.73;43.09
39613;BME280;25303;48.896;13.342;2023-07-09T04:53:08;93447.25;;;20.75;43.01
39613;BME280;25303;48.896;13.342;2023-07-09T04:55:53;93445.03;;;20.78;42.76
39613;BME280;25303;48.896;13.342;2023-07-09T04:58:37;93448.88;;;20.83;43.14
39613;BME280;25303;48.896;13.342;2023-07-09T05:01:20;93450.03;;;20.87;43.13
39613;BME280;25303;48.896;13.342;2023-07-09T05:04:03;93448.44;;;20.92;43.32
39613;BME280;25303;48.896;13.342;2023-07-09T05:06:46;93453.66;;;20.99;43.04
39613;BME280;25303;48.896;13.342;2023-07-09T05:09:29;93453.03;;;21.04;43.52
39613;BME280;25303;48.896;13.342;2023-07-09T05:12:13;93458.47;;;21.09;43.29
39613;BME280;25303;48.896;13.342;2023-07-09T05:14:56;93463.88;;;21.14;43.48
39613;BME280;25303;48.896;13.342;2023-07-09T05:17:39;93463.47;;;21.17;43.48
39613;BME280;25303;48.896;13.342;2023-07-09T05:20:22;93465.84;;;21.19;43.20
39613;BME280;25303;48.896;13.342;2023-07-09T05:23:07;93462.03;;;21.21;43.48
39613;BME280;25303;48.896;13.342;2023-07-09T05:25:55;93461.63;;;21.24;43.89
39613;BME280;25303;48.896;13.342;2023-07-09T05:28:40;93463.81;;;21.28;43.58
39613;BME280;25303;48.896;13.342;2023-07-09T05:31:23;93466.84;;;21.31;43.95
39613;BME280;25303;48.896;13.342;2023-07-09T05:34:07;93467.44;;;21.33;44.35
39613;BME280;25303;48.896;13.342;2023-07-09T05:36:50;93471.44;;;21.36;43.64
39613;BME280;25303;48.896;13.342;2023-07-09T05:39:34;93472.25;;;21.36;43.63
39613;BME280;25303;48.896;13.342;2023-07-09T05:42:17;93471.63;;;21.41;43.33
39613;BME280;25303;48.896;13.342;2023-07-09T05:45:01;93479.47;;;21.48;43.18
39613;BME280;25303;48.896;13.342;2023-07-09T05:47:44;93480.22;;;21.55;42.85
39613;BME280;25303;48.896;13.342;2023-07-09T05:50:28;93488.50;;;21.65;42.62
39613;BME280;25303;48.896;13.342;2023-07-09T05:53:11;93485.00;;;21.72;42.37
39613;BME280;25303;48.896;13.342;2023-07-09T05:55:54;93484.19;;;21.78;42.11
39613;BME280;25303;48.896;13.342;2023-07-09T05:58:38;93480.94;;;21.82;42.11
39613;BME280;25303;48.896;13.342;2023-07-09T06:01:22;93481.13;;;21.88;42.00
39613;BME280;25303;48.896;13.342;2023-07-09T06:04:06;93484.47;;;21.95;41.60
39613;BME280;25303;48.896;13.342;2023-07-09T06:06:50;93485.66;;;21.99;41.57
39613;BME280;25303;48.896;13.342;2023-07-09T06:09:33;93484.63;;;22.07;41.76
39613;BME280;25303;48.896;13.342;2023-07-09T06:12:16;93482.38;;;22.10;41.52
39613;BME280;25303;48.896;13.342;2023-07-09T06:15:01;93482.53;;;22.15;41.41
39613;BME280;25303;48.896;13.342;2023-07-09T06:17:45;93474.03;;;22.20;41.42
39613;BME280;25303;48.896;13.342;2023-07-09T06:20:29;93478.66;;;22.25;41.65
39613;BME280;25303;48.896;13.342;2023-07-09T06:23:11;93487.25;;;22.32;41.45
39613;BME280;25303;48.896;13.342;2023-07-09T06:25:54;93495.50;;;22.36;41.27
39613;BME280;25303;48.896;13.342;2023-07-09T06:28:37;93485.81;;;22.43;41.44
39613;BME280;25303;48.896;13.342;2023-07-09T06:31:20;93485.16;;;22.48;41.12
39613;BME280;25303;48.896;13.342;2023-07-09T06:34:07;93482.91;;;22.51;41.32
39613;BME280;25303;48.896;13.342;2023-07-09T06:36:51;93489.13;;;22.57;41.14
39613;BME280;25303;48.896;13.342;2023-07-09T06:39:34;93492.13;;;22.60;41.01
39613;BME280;25303;48.896;13.342;2023-07-09T06:42:17;93485.19;;;22.66;40.97
39613;BME280;25303;48.896;13.342;2023-07-09T06:45:14;93484.34;;;22.72;41.03
39613;BME280;25303;48.896;13.342;2023-07-09T06:47:57;93494.19;;;22.77;41.02
39613;BME280;25303;48.896;13.342;2023-07-09T06:50:42;93491.16;;;22.80;41.37
39613;BME280;25303;48.896;13.342;2023-07-09T06:53:25;93487.88;;;22.85;41.05
39613;BME280;25303;48.896;13.342;2023-07-09T06:56:09;93487.22;;;22.89;41.46
39613;BME280;25303;48.896;13.342;2023-07-09T06:58:52;93502.31;;;22.94;41.12
39613;BME280;25303;48.896;13.342;2023-07-09T07:01:35;93504.06;;;23.00;41.16
39613;BME280;25303;48.896;13.342;2023-07-09T07:04:18;93498.91;;;23.12;41.04
39613;BME280;25303;48.896;13.342;2023-07-09T07:07:03;93505.66;;;23.27;40.75
39613;BME280;25303;48.896;13.342;2023-07-09T07:09:46;93508.78;;;23.35;40.59
39613;BME280;25303;48.896;13.342;2023-07-09T07:12:29;93501.84;;;23.41;40.41
39613;BME280;25303;48.896;13.342;2023-07-09T07:15:14;93499.22;;;23.41;40.13
39613;BME280;25303;48.896;13.342;2023-07-09T07:17:57;93509.06;;;23.46;39.93
39613;BME280;25303;48.896;13.342;2023-07-09T07:20:41;93504.56;;;23.53;39.84
39613;BME280;25303;48.896;13.342;2023-07-09T07:23:25;93506.06;;;23.61;39.74
39613;BME280;25303;48.896;13.342;2023-07-09T07:26:08;93507.81;;;23.67;39.69
39613;BME280;25303;48.896;13.342;2023-07-09T07:28:51;93508.53;;;23.74;39.78
39613;BME280;25303;48.896;13.342;2023-07-09T07:31:34;93501.59;;;23.80;40.08
39613;BME280;25303;48.896;13.342;2023-07-09T07:34:17;93504.94;;;23.87;39.75
39613;BME280;25303;48.896;13.342;2023-07-09T07:37:01;93498.56;;;23.95;39.67
39613;BME280;25303;48.896;13.342;2023-07-09T07:39:45;93491.97;;;24.04;39.89
39613;BME280;25303;48.896;13.342;2023-07-09T07:42:28;93492.47;;;24.13;39.81
39613;BME280;25303;48.896;13.342;2023-07-09T07:45:11;93496.16;;;24.24;39.61
39613;BME280;25303;48.896;13.342;2023-07-09T07:47:54;93498.47;;;24.32;39.64
39613;BME280;25303;48.896;13.342;2023-07-09T07:50:37;93494.72;;;24.40;39.03
39613;BME280;25303;48.896;13.342;2023-07-09T07:53:21;93491.28;;;24.51;39.38
39613;BME280;25303;48.896;13.342;2023-07-09T07:56:05;93492.91;;;24.64;39.35
39613;BME280;25303;48.896;13.342;2023-07-09T07:58:48;93497.16;;;24.77;39.45
39613;BME280;25303;48.896;13.342;2023-07-09T08:01:31;93494.31;;;24.91;39.41
39613;BME280;25303;48.896;13.342;2023-07-09T08:04:17;93491.91;;;25.01;39.03
39613;BME280;25303;48.896;13.342;2023-07-09T08:07:00;93496.34;;;25.12;38.86
39613;BME280;25303;48.896;13.342;2023-07-09T08:09:43;93497.38;;;25.23;38.38
39613;BME280;25303;48.896;13.342;2023-07-09T08:12:27;93501.03;;;25.34;37.80
39613;BME280;25303;48.896;13.342;2023-07-09T08:15:11;93497.25;;;25.42;37.72
39613;BME280;25303;48.896;13.342;2023-07-09T08:17:54;93497.91;;;25.49;37.43
39613;BME280;25303;48.896;13.342;2023-07-09T08:20:37;93495.19;;;25.56;36.98
39613;BME280;25303;48.896;13.342;2023-07-09T08:23:20;93499.81;;;25.66;36.94
39613;BME280;25303;48.896;13.342;2023-07-09T08:26:04;93497.06;;;25.72;36.53
39613;BME280;25303;48.896;13.342;2023-07-09T08:28:48;93498.28;;;25.82;36.71
39613;BME280;25303;48.896;13.342;2023-07-09T08:31:31;93499.28;;;25.92;36.83
39613;BME280;25303;48.896;13.342;2023-07-09T08:34:15;93501.88;;;26.04;36.83
39613;BME280;25303;48.896;13.342;2023-07-09T08:36:58;93504.25;;;26.18;36.62
39613;BME280;25303;48.896;13.342;2023-07-09T08:39:41;93501.22;;;26.26;36.17
39613;BME280;25303;48.896;13.342;2023-07-09T08:42:29;93496.13;;;26.36;36.29
39613;BME280;25303;48.896;13.342;2023-07-09T08:45:32;93493.94;;;26.50;35.73
39613;BME280;25303;48.896;13.342;2023-07-09T08:48:22;93495.94;;;26.60;35.83
39613;BME280;25303;48.896;13.342;2023-07-09T08:51:12;93490.91;;;26.76;35.91
39613;BME280;25303;48.896;13.342;2023-07-09T08:53:58;93496.44;;;26.91;35.68
39613;BME280;25303;48.896;13.342;2023-07-09T08:56:42;93498.03;;;27.09;35.46
39613;BME280;25303;48.896;13.342;2023-07-09T08:59:26;93486.06;;;27.24;35.39
39613;BME280;25303;48.896;13.342;2023-07-09T09:02:17;93490.72;;;27.39;34.82
39613;BME280;25303;48.896;13.342;2023-07-09T09:05:05;93490.16;;;27.54;34.67
39613;BME280;25303;48.896;13.342;2023-07-09T09:07:52;93494.56;;;27.70;34.47
39613;BME280;25303;48.896;13.342;2023-07-09T09:10:42;93499.53;;;27.89;34.21
39613;BME280;25303;48.896;13.342;2023-07-09T09:13:28;93492.81;;;28.03;33.74
39613;BME280;25303;48.896;13.342;2023-07-09T09:16:25;93505.66;;;28.17;33.67
39613;BME280;25303;48.896;13.342;2023-07-09T09:19:26;93492.78;;;28.26;32.53
39613;BME280;25303;48.896;13.342;2023-07-09T09:22:11;93493.41;;;28.38;33.31
39613;BME280;25303;48.896;13.342;2023-07-09T09:25:01;93490.66;;;28.55;32.47
39613;BME280;25303;48.896;13.342;2023-07-09T09:27:46;93486.25;;;28.71;32.06
39613;BME280;25303;48.896;13.342;2023-07-09T09:30:30;93495.38;;;28.80;32.34
39613;BME280;25303;48.896;13.342;2023-07-09T09:33:16;93489.19;;;29.07;31.70
39613;BME280;25303;48.896;13.342;2023-07-09T09:36:03;93493.34;;;29.36;31.95
39613;BME280;25303;48.896;13.342;2023-07-09T09:38:48;93494.25;;;29.62;31.67
39613;BME280;25303;48.896;13.342;2023-07-09T09:41:36;93480.78;;;29.84;31.01
39613;BME280;25303;48.896;13.342;2023-07-09T09:44:23;93497.06;;;30.04;30.67
39613;BME280;25303;48.896;13.342;2023-07-09T09:47:09;93486.22;;;30.36;30.29
39613;BME280;25303;48.896;13.342;2023-07-09T09:49:53;93488.38;;;30.55;30.06
39613;BME280;25303;48.896;13.342;2023-07-09T09:52:37;93487.84;;;30.79;30.19
39613;BME280;25303;48.896;13.342;2023-07-09T09:55:22;93484.88;;;31.06;28.23
39613;BME280;25303;48.896;13.342;2023-07-09T09:58:11;93485.94;;;31.26;28.50
39613;BME280;25303;48.896;13.342;2023-07-09T10:00:57;93483.75;;;31.48;29.13
39613;BME280;25303;48.896;13.342;2023-07-09T10:03:43;93481.81;;;31.75;29.08
39613;BME280;25303;48.896;13.342;2023-07-09T10:06:34;93485.44;;;31.89;26.13
39613;BME280;25303;48.896;13.342;2023-07-09T10:09:27;93487.53;;;31.97;25.78
39613;BME280;25303;48.896;13.342;2023-07-09T10:12:13;93490.84;;;32.19;25.81
39613;BME280;25303;48.896;13.342;2023-07-09T10:15:01;93495.88;;;32.31;26.27
39613;BME280;25303;48.896;13.342;2023-07-09T10:17:54;93492.31;;;32.46;23.86
39613;BME280;25303;48.896;13.342;2023-07-09T10:20:46;93493.91;;;32.47;24.82
39613;BME280;25303;48.896;13.342;2023-07-09T10:23:35;93486.84;;;32.66;25.11
39613;BME280;25303;48.896;13.342;2023-07-09T10:26:27;93490.47;;;32.76;25.32
39613;BME280;25303;48.896;13.342;2023-07-09T10:29:33;93489.53;;;32.96;23.84
39613;BME280;25303;48.896;13.342;2023-07-09T10:32:29;93496.47;;;33.21;24.03
39613;BME280;25303;48.896;13.342;2023-07-09T10:35:22;93486.56;;;33.51;23.85
39613;BME280;25303;48.896;13.342;2023-07-09T10:38:26;93488.38;;;33.80;22.83
39613;BME280;25303;48.896;13.342;2023-07-09T10:41:16;93491.09;;;33.99;23.48
39613;BME280;25303;48.896;13.342;2023-07-09T10:44:14;93488.66;;;34.22;22.96
39613;BME280;25303;48.896;13.342;2023-07-09T10:47:03;93487.63;;;34.37;22.80
39613;BME280;25303;48.896;13.342;2023-07-09T10:49:49;93495.28;;;34.63;22.70
39613;BME280;25303;48.896;13.342;2023-07-09T10:52:36;93493.63;;;34.81;22.15
39613;BME280;25303;48.896;13.342;2023-07-09T10:55:24;93490.22;;;34.94;21.29
39613;BME280;25303;48.896;13.342;2023-07-09T10:58:22;93486.00;;;35.07;20.18
39613;BME280;25303;48.896;13.342;2023-07-09T11:01:11;93481.66;;;35.11;19.74
39613;BME280;25303;48.896;13.342;2023-07-09T11:03:59;93483.03;;;35.09;20.64
39613;BME280;25303;48.896;13.342;2023-07-09T11:06:46;93486.81;;;35.22;19.88
39613;BME280;25303;48.896;13.342;2023-07-09T11:09:33;93474.13;;;35.41;19.92
39613;BME280;25303;48.896;13.342;2023-07-09T11:12:18;93471.59;;;35.64;20.11
39613;BME280;25303;48.896;13.342;2023-07-09T11:15:07;93476.00;;;35.83;19.60
39613;BME280;25303;48.896;13.342;2023-07-09T11:17:57;93471.06;;;36.04;19.02
39613;BME280;25303;48.896;13.342;2023-07-09T11:20:43;93470.13;;;36.09;19.25
39613;BME280;25303;48.896;13.342;2023-07-09T11:23:37;93468.03;;;36.19;19.12
39613;BME280;25303;48.896;13.342;2023-07-09T11:26:23;93475.41;;;36.37;19.02
39613;BME280;25303;48.896;13.342;2023-07-09T11:29:15;93469.44;;;36.40;18.81
39613;BME280;25303;48.896;13.342;2023-07-09T11:32:08;93469.69;;;36.29;18.46
39613;BME280;25303;48.896;13.342;2023-07-09T11:35:06;93464.09;;;35.89;17.98
39613;BME280;25303;48.896;13.342;2023-07-09T11:37:50;93470.78;;;35.50;18.90
39613;BME280;25303;48.896;13.342;2023-07-09T11:40:45;93473.50;;;35.17;18.94
39613;BME280;25303;48.896;13.342;2023-07-09T11:43:31;93468.59;;;34.91;19.22
39613;BME280;25303;48.896;13.342;2023-07-09T11:46:18;93466.38;;;34.65;19.11
39613;BME280;25303;48.896;13.342;2023-07-09T11:49:03;93463.94;;;34.30;19.71
39613;BME280;25303;48.896;13.342;2023-07-09T11:51:52;93472.38;;;33.99;19.59
39613;BME280;25303;48.896;13.342;2023-07-09T11:54:37;93466.03;;;33.95;20.09
39613;BME280;25303;48.896;13.342;2023-07-09T11:57:20;93476.88;;;33.79;20.44
39613;BME280;25303;48.896;13.342;2023-07-09T12:00:04;93474.63;;;33.68;20.33
39613;BME280;25303;48.896;13.342;2023-07-09T12:02:52;93468.91;;;33.55;20.85
39613;BME280;25303;48.896;13.342;2023-07-09T12:05:35;93465.88;;;33.43;20.64
39613;BME280;25303;48.896;13.342;2023-07-09T12:08:24;93461.91;;;33.35;21.15
39613;BME280;25303;48.896;13.342;2023-07-09T12:11:18;93458.53;;;33.54;21.21
39613;BME280;25303;48.896;13.342;2023-07-09T12:14:02;93455.34;;;33.95;21.17
39613;BME280;25303;48.896;13.342;2023-07-09T12:16:47;93453.84;;;34.46;20.58
39613;BME280;25303;48.896;13.342;2023-07-09T12:19:32;93453.13;;;34.88;20.36
39613;BME280;25303;48.896;13.342;2023-07-09T12:22:18;93453.78;;;34.98;19.93
39613;BME280;25303;48.896;13.342;2023-07-09T12:25:07;93452.25;;;34.92;20.12
39613;BME280;25303;48.896;13.342;2023-07-09T12:28:01;93454.03;;;34.83;20.42
39613;BME280;25303;48.896;13.342;2023-07-09T12:30:46;93449.56;;;34.78;20.18
39613;BME280;25303;48.896;13.342;2023-07-09T12:33:29;93444.94;;;34.51;20.28
39613;BME280;25303;48.896;13.342;2023-07-09T12:36:12;93441.31;;;34.61;20.47
39613;BME280;25303;48.896;13.342;2023-07-09T12:38:57;93436.81;;;34.89;20.15
39613;BME280;25303;48.896;13.342;2023-07-09T12:41:44;93434.56;;;35.38;20.05
39613;BME280;25303;48.896;13.342;2023-07-09T12:44:31;93431.88;;;35.80;19.71
39613;BME280;25303;48.896;13.342;2023-07-09T12:47:18;93439.47;;;36.15;19.13
39613;BME280;25303;48.896;13.342;2023-07-09T12:50:16;93429.06;;;35.99;18.67
39613;BME280;25303;48.896;13.342;2023-07-09T12:53:09;93431.59;;;35.68;19.06
39613;BME280;25303;48.896;13.342;2023-07-09T12:55:56;93425.94;;;35.41;19.58
39613;BME280;25303;48.896;13.342;2023-07-09T12:58:41;93420.59;;;35.41;19.26
39613;BME280;25303;48.896;13.342;2023-07-09T13:01:26;93420.16;;;35.76;19.05
39613;BME280;25303;48.896;13.342;2023-07-09T13:04:11;93417.38;;;36.18;18.52
39613;BME280;25303;48.896;13.342;2023-07-09T13:06:55;93414.72;;;36.41;17.96
39613;BME280;25303;48.896;13.342;2023-07-09T13:09:47;93411.06;;;36.37;17.70
39613;BME280;25303;48.896;13.342;2023-07-09T13:12:32;93411.03;;;36.51;18.50
39613;BME280;25303;48.896;13.342;2023-07-09T13:15:31;93408.78;;;36.98;18.13
39613;BME280;25303;48.896;13.342;2023-07-09T13:18:15;93395.94;;;37.27;17.62
39613;BME280;25303;48.896;13.342;2023-07-09T13:20:59;93407.69;;;37.57;17.43
39613;BME280;25303;48.896;13.342;2023-07-09T13:23:43;93404.25;;;37.74;17.27
39613;BME280;25303;48.896;13.342;2023-07-09T13:26:28;93406.53;;;37.98;16.93
39613;BME280;25303;48.896;13.342;2023-07-09T13:29:13;93401.44;;;37.79;17.46
39613;BME280;25303;48.896;13.342;2023-07-09T13:31:58;93405.09;;;37.92;17.24
39613;BME280;25303;48.896;13.342;2023-07-09T13:34:41;93408.72;;;37.96;17.36
39613;BME280;25303;48.896;13.342;2023-07-09T13:37:25;93406.66;;;38.02;16.95
39613;BME280;25303;48.896;13.342;2023-07-09T13:40:10;93404.31;;;38.09;16.10
39613;BME280;25303;48.896;13.342;2023-07-09T13:42:54;93404.47;;;38.04;16.44
39613;BME280;25303;48.896;13.342;2023-07-09T13:45:37;93405.72;;;38.24;16.45
39613;BME280;25303;48.896;13.342;2023-07-09T13:48:24;93404.59;;;38.52;16.56
39613;BME280;25303;48.896;13.342;2023-07-09T13:51:15;93387.81;;;38.64;16.12
39613;BME280;25303;48.896;13.342;2023-07-09T13:53:58;93393.94;;;38.73;16.18
39613;BME280;25303;48.896;13.342;2023-07-09T13:56:44;93401.03;;;38.95;15.65
39613;BME280;25303;48.896;13.342;2023-07-09T13:59:28;93399.94;;;38.96;15.75
39613;BME280;25303;48.896;13.342;2023-07-09T14:02:25;93397.47;;;39.12;15.47
